Wetterstation Vordersexau
Wetterdaten: Woche 22.02.16 - 28.02.16 (KW8)
Datum Zeit Temp. A. Feuchte A. Luftdruck Regen Wind Richtung Taupunkt Windchill Windben
22.02.2016 00:00 8,7 C 83 % 1014,3 hPa 0,0 l/m 0,0 km/h S-SW 6,0 C 8,7 C 0,0 km/h
22.02.2016 01:00 10,9 C 83 % 1014,1 hPa 0,0 l/m 25,9 km/h W 8,1 C 2,8 C 14,4 km/h
22.02.2016 02:00 11,3 C 79 % 1013,3 hPa 0,0 l/m 1,9 km/h W-SW 7,8 C 11,3 C 1,1 km/h
22.02.2016 03:00 11,4 C 81 % 1013,5 hPa 0,0 l/m 22,0 km/h W 8,3 C 4,5 C 12,2 km/h
22.02.2016 04:00 11,1 C 81 % 1013,6 hPa 0,0 l/m 13,6 km/h W-NW 8,0 C 7,1 C 7,6 km/h
22.02.2016 05:00 10,9 C 82 % 1013,2 hPa 0,0 l/m 7,8 km/h W-SW 7,9 C 9,9 C 4,3 km/h
22.02.2016 06:00 10,9 C 82 % 1013,1 hPa 0,0 l/m 36,3 km/h SW 7,9 C 0,8 C 20,2 km/h
22.02.2016 07:00 10,4 C 83 % 1013,1 hPa 0,0 l/m 16,8 km/h W 7,6 C 4,9 C 9,4 km/h
22.02.2016 08:00 11,6 C 80 % 1013,2 hPa 0,0 l/m 18,1 km/h SW 8,3 C 6,0 C 10,1 km/h
22.02.2016 09:00 13,8 C 70 % 1012,7 hPa 0,0 l/m 25,9 km/h W-SW 8,4 C 6,8 C 14,4 km/h
22.02.2016 10:00 14,4 C 67 % 1012,8 hPa 0,0 l/m 15,6 km/h W-SW 8,4 C 10,3 C 8,6 km/h
22.02.2016 11:00 15,9 C 62 % 1012,7 hPa 0,0 l/m 24,6 km/h W 8,6 C 9,9 C 13,7 km/h
22.02.2016 12:00 16,1 C 61 % 1011,9 hPa 0,0 l/m 16,2 km/h W-SW 8,6 C 12,2 C 9,0 km/h
22.02.2016 13:00 14,6 C 61 % 1011,2 hPa 0,0 l/m 26,6 km/h SW 7,2 C 7,7 C 14,8 km/h
22.02.2016 14:00 17,1 C 55 % 1010,2 hPa 0,0 l/m 25,9 km/h SW 8,0 C 11,3 C 14,4 km/h
22.02.2016 15:00 14,1 C 64 % 1009,9 hPa 0,0 l/m 21,4 km/h W-NW 7,4 C 8,2 C 11,9 km/h
22.02.2016 16:00 14,6 C 62 % 1009,4 hPa 0,0 l/m 15,6 km/h NW 7,4 C 10,5 C 8,6 km/h
22.02.2016 17:00 12,5 C 69 % 1009,7 hPa 0,0 l/m 2,6 km/h W 7,0 C 12,5 C 1,4 km/h
22.02.2016 18:00 11,4 C 74 % 1010,3 hPa 0,0 l/m 2,6 km/h W 6,9 C 11,4 C 1,4 km/h
22.02.2016 19:00 11,4 C 75 % 1010,4 hPa 0,0 l/m 2,6 km/h W-SW 7,1 C 11,4 C 1,4 km/h
22.02.2016 20:00 11,2 C 75 % 1010,3 hPa 0,0 l/m 25,9 km/h W-SW 6,9 C 3,2 C 14,4 km/h
22.02.2016 21:00 10,9 C 76 % 1010,7 hPa 0,0 l/m 28,5 km/h W-NW 6,8 C 2,2 C 15,8 km/h
22.02.2016 22:00 10,7 C 78 % 1011,0 hPa 0,0 l/m 19,4 km/h W-SW 7,0 C 4,4 C 10,8 km/h
22.02.2016 23:00 10,4 C 78 % 1010,5 hPa 0,0 l/m 25,3 km/h W-NW 6,7 C 2,3 C 14,0 km/h
23.02.2016 00:00 10,3 C 76 % 1010,5 hPa 0,0 l/m 24,6 km/h W 6,3 C 2,3 C 13,7 km/h
23.02.2016 01:00 10,1 C 77 % 1010,4 hPa 0,0 l/m 18,8 km/h W 6,3 C 3,8 C 10,4 km/h
23.02.2016 02:00 9,8 C 78 % 1010,3 hPa 0,0 l/m 10,4 km/h W-SW 6,1 C 7,1 C 5,8 km/h
23.02.2016 03:00 9,6 C 79 % 1009,4 hPa 0,0 l/m 22,7 km/h W 6,1 C 1,9 C 12,6 km/h
23.02.2016 04:00 9,6 C 80 % 1009,3 hPa 0,0 l/m 20,1 km/h W 6,3 C 2,7 C 11,2 km/h
23.02.2016 05:00 9,1 C 82 % 1008,6 hPa 0,0 l/m 18,8 km/h W 6,2 C 2,5 C 10,4 km/h
23.02.2016 06:00 8,9 C 84 % 1008,5 hPa 0,0 l/m 20,7 km/h S-SW 6,3 C 1,6 C 11,5 km/h
23.02.2016 07:00 8,6 C 85 % 1008,4 hPa 0,0 l/m 18,8 km/h W-SW 6,2 C 1,9 C 10,4 km/h
23.02.2016 08:00 8,6 C 86 % 1008,7 hPa 0,0 l/m 23,3 km/h W-SW 6,4 C 0,4 C 13,0 km/h
23.02.2016 09:00 8,4 C 87 % 1008,6 hPa 0,4 l/m 20,1 km/h SW 6,4 C 1,2 C 11,2 km/h
23.02.2016 10:00 8,9 C 86 % 1008,5 hPa 0,4 l/m 40,2 km/h S-SW 6,7 C -2,8 C 22,3 km/h
23.02.2016 11:00 8,9 C 86 % 1008,1 hPa 0,0 l/m 45,4 km/h NO 6,7 C -3,5 C 25,2 km/h
23.02.2016 12:00 5,6 C 85 % 1009,9 hPa 1,7 l/m 0,0 km/h NO 3,3 C 5,6 C 0,0 km/h
23.02.2016 13:00 3,9 C 87 % 1011,1 hPa 1,7 l/m 0,0 km/h SO 1,9 C 3,9 C 0,0 km/h
23.02.2016 14:00 4,3 C 88 % 1011,6 hPa 0,8 l/m 0,0 km/h N 2,5 C 4,3 C 0,0 km/h
23.02.2016 15:00 3,0 C 88 % 1012,8 hPa 2,1 l/m 0,0 km/h S-SW 1,2 C 3,0 C 0,0 km/h
23.02.2016 16:00 2,9 C 88 % 1013,8 hPa 0,8 l/m 1,9 km/h S 1,1 C 2,9 C 1,1 km/h
23.02.2016 17:00 2,9 C 88 % 1014,7 hPa 0,4 l/m 0,0 km/h S-SO 1,1 C 2,9 C 0,0 km/h
23.02.2016 18:00 2,6 C 88 % 1015,6 hPa 0,0 l/m 0,0 km/h S-SO 0,8 C 2,6 C 0,0 km/h
23.02.2016 19:00 0,8 C 88 % 1016,6 hPa 0,0 l/m 0,0 km/h S-SO -1,0 C 0,8 C 0,0 km/h
23.02.2016 20:00 1,8 C 88 % 1017,1 hPa 0,0 l/m 0,0 km/h S-SO 0,0 C 1,8 C 0,0 km/h
23.02.2016 21:00 2,4 C 87 % 1017,5 hPa 0,0 l/m 0,0 km/h N-NO 0,5 C 2,4 C 0,0 km/h
23.02.2016 22:00 2,6 C 87 % 1018,0 hPa 0,0 l/m 0,0 km/h N-NO 0,7 C 2,6 C 0,0 km/h
23.02.2016 23:00 2,6 C 87 % 1018,2 hPa 0,0 l/m 0,0 km/h N-NO 0,7 C 2,6 C 0,0 km/h
24.02.2016 00:00 2,6 C 87 % 1018,3 hPa 0,0 l/m 0,0 km/h N-NO 0,7 C 2,6 C 0,0 km/h
24.02.2016 01:00 2,6 C 87 % 1018,2 hPa 0,0 l/m 0,0 km/h SO 0,7 C 2,6 C 0,0 km/h
24.02.2016 02:00 1,6 C 86 % 1017,9 hPa 0,4 l/m 0,0 km/h SO -0,5 C 1,6 C 0,0 km/h
24.02.2016 03:00 0,5 C 87 % 1017,7 hPa 0,0 l/m 0,0 km/h SO -1,4 C 0,5 C 0,0 km/h
24.02.2016 04:00 0,4 C 87 % 1017,6 hPa 0,0 l/m 0,0 km/h SO -1,5 C 0,4 C 0,0 km/h
24.02.2016 05:00 0,4 C 87 % 1017,4 hPa 0,0 l/m 0,0 km/h SO -1,5 C 0,4 C 0,0 km/h
24.02.2016 06:00 0,4 C 87 % 1017,3 hPa 0,0 l/m 0,0 km/h SO -1,5 C 0,4 C 0,0 km/h
24.02.2016 07:00 0,4 C 87 % 1017,4 hPa 0,0 l/m 0,0 km/h SO -1,5 C 0,4 C 0,0 km/h
24.02.2016 08:00 1,4 C 83 % 1017,5 hPa 0,0 l/m 0,0 km/h SO -1,2 C 1,4 C 0,0 km/h
24.02.2016 09:00 8,4 C 87 % 1017,2 hPa 0,0 l/m 0,0 km/h S-SO 6,4 C 8,4 C 0,0 km/h
24.02.2016 10:00 9,9 C 80 % 1016,7 hPa 0,0 l/m 0,0 km/h N 6,6 C 9,9 C 0,0 km/h
24.02.2016 11:00 13,6 C 62 % 1015,9 hPa 0,0 l/m 0,0 km/h NO 6,5 C 13,6 C 0,0 km/h
24.02.2016 12:00 11,2 C 58 % 1015,2 hPa 0,0 l/m 0,0 km/h N-NO 3,2 C 11,2 C 0,0 km/h
24.02.2016 13:00 13,0 C 56 % 1013,8 hPa 0,0 l/m 7,1 km/h S-SO 4,4 C 12,6 C 4,0 km/h
24.02.2016 14:00 15,9 C 46 % 1012,6 hPa 0,4 l/m 0,0 km/h S 4,3 C 15,9 C 0,0 km/h
24.02.2016 15:00 9,4 C 57 % 1011,9 hPa 0,0 l/m 0,0 km/h S 1,3 C 9,4 C 0,0 km/h
24.02.2016 16:00 7,0 C 64 % 1011,3 hPa 0,0 l/m 5,2 km/h S-SO 0,7 C 7,0 C 2,9 km/h
24.02.2016 17:00 5,9 C 68 % 1011,0 hPa 0,0 l/m 13,0 km/h S-SO 0,5 C 1,2 C 7,2 km/h
24.02.2016 18:00 5,2 C 71 % 1010,8 hPa 0,0 l/m 0,0 km/h S 0,4 C 5,2 C 0,0 km/h
24.02.2016 19:00 4,9 C 71 % 1010,8 hPa 0,0 l/m 6,5 km/h S-SO 0,1 C 4,8 C 3,6 km/h
24.02.2016 20:00 4,1 C 76 % 1010,5 hPa 0,0 l/m 24,0 km/h S-SO 0,3 C -5,8 C 13,3 km/h
24.02.2016 21:00 3,1 C 81 % 1010,0 hPa 0,0 l/m 0,0 km/h S-SO 0,2 C 3,1 C 0,0 km/h
24.02.2016 22:00 2,6 C 84 % 1009,3 hPa 0,0 l/m 0,0 km/h S-SO 0,2 C 2,6 C 0,0 km/h
24.02.2016 23:00 2,3 C 85 % 1008,5 hPa 0,8 l/m 0,0 km/h O-NO 0,0 C 2,3 C 0,0 km/h
25.02.2016 00:00 1,9 C 86 % 1008,3 hPa 0,8 l/m 0,0 km/h O-NO -0,2 C 1,9 C 0,0 km/h
25.02.2016 01:00 0,8 C 86 % 1008,2 hPa 0,4 l/m 0,0 km/h O-NO -1,3 C 0,8 C 0,0 km/h
25.02.2016 02:00 0,8 C 86 % 1007,5 hPa 0,0 l/m 0,0 km/h O-NO -1,3 C 0,8 C 0,0 km/h
25.02.2016 03:00 0,2 C 87 % 1007,3 hPa 0,0 l/m 0,0 km/h O-NO -1,7 C 0,2 C 0,0 km/h
25.02.2016 04:00 0,3 C 88 % 1007,5 hPa 0,0 l/m 0,0 km/h O-NO -1,4 C 0,3 C 0,0 km/h
25.02.2016 05:00 0,2 C 88 % 1007,6 hPa 0,0 l/m 0,0 km/h O-NO -1,5 C 0,2 C 0,0 km/h
25.02.2016 06:00 0,2 C 88 % 1007,9 hPa 0,0 l/m 0,0 km/h O-NO -1,5 C 0,2 C 0,0 km/h
25.02.2016 07:00 0,3 C 88 % 1008,1 hPa 0,0 l/m 0,0 km/h O-NO -1,4 C 0,3 C 0,0 km/h
25.02.2016 08:00 1,3 C 88 % 1009,0 hPa 0,4 l/m 0,0 km/h NO -0,5 C 1,3 C 0,0 km/h
25.02.2016 09:00 2,7 C 88 % 1009,5 hPa 0,0 l/m 0,0 km/h NO 0,9 C 2,7 C 0,0 km/h
25.02.2016 10:00 4,1 C 87 % 1010,0 hPa 0,0 l/m 0,0 km/h NO 2,1 C 4,1 C 0,0 km/h
25.02.2016 11:00 6,1 C 81 % 1010,4 hPa 0,8 l/m 0,0 km/h NO 3,1 C 6,1 C 0,0 km/h
25.02.2016 12:00 5,5 C 79 % 1010,6 hPa 1,2 l/m 0,0 km/h NO 2,2 C 5,5 C 0,0 km/h
25.02.2016 13:00 6,4 C 78 % 1010,8 hPa 2,1 l/m 0,0 km/h SO 2,8 C 6,4 C 0,0 km/h
25.02.2016 14:00 8,8 C 72 % 1010,8 hPa 2,1 l/m 0,0 km/h SO 4,0 C 8,8 C 0,0 km/h
25.02.2016 15:00 7,3 C 73 % 1011,1 hPa 0,8 l/m 3,9 km/h SO 2,8 C 7,3 C 2,2 km/h
25.02.2016 16:00 11,4 C 63 % 1011,3 hPa 0,4 l/m 0,0 km/h SO 4,6 C 11,4 C 0,0 km/h
25.02.2016 17:00 3,6 C 79 % 1011,5 hPa 0,0 l/m 0,0 km/h SO 0,3 C 3,6 C 0,0 km/h
25.02.2016 18:00 2,2 C 84 % 1012,4 hPa 0,0 l/m 0,0 km/h SO -0,2 C 2,2 C 0,0 km/h
25.02.2016 19:00 1,9 C 86 % 1012,8 hPa 0,0 l/m 0,0 km/h SO -0,2 C 1,9 C 0,0 km/h
25.02.2016 20:00 1,6 C 87 % 1013,1 hPa 0,0 l/m 0,0 km/h SO -0,3 C 1,6 C 0,0 km/h
25.02.2016 21:00 1,6 C 88 % 1013,4 hPa 0,0 l/m 0,0 km/h SO -0,2 C 1,6 C 0,0 km/h
25.02.2016 22:00 1,3 C 88 % 1013,4 hPa 0,0 l/m 0,0 km/h SO -0,5 C 1,3 C 0,0 km/h
25.02.2016 23:00 1,2 C 88 % 1013,3 hPa 0,0 l/m 0,0 km/h SO -0,6 C 1,2 C 0,0 km/h
26.02.2016 00:00 1,0 C 88 % 1013,2 hPa 0,0 l/m 0,0 km/h SO -0,8 C 1,0 C 0,0 km/h
26.02.2016 01:00 0,6 C 88 % 1013,2 hPa 0,0 l/m 0,0 km/h SO -1,2 C 0,6 C 0,0 km/h
26.02.2016 02:00 0,4 C 88 % 1012,8 hPa 0,0 l/m 0,0 km/h SO -1,3 C 0,4 C 0,0 km/h
26.02.2016 03:00 0,3 C 88 % 1012,5 hPa 0,0 l/m 0,0 km/h SO -1,4 C 0,3 C 0,0 km/h
26.02.2016 04:00 0,1 C 88 % 1012,3 hPa 0,0 l/m 0,0 km/h SO -1,6 C 0,1 C 0,0 km/h
26.02.2016 05:00 -0,5 C 88 % 1011,9 hPa 0,0 l/m 0,0 km/h SO -2,2 C -0,5 C 0,0 km/h
26.02.2016 06:00 -1,7 C 88 % 1011,1 hPa 0,0 l/m 0,0 km/h SO -3,4 C -1,7 C 0,0 km/h
26.02.2016 07:00 -1,6 C 88 % 1010,8 hPa 0,0 l/m 0,0 km/h SO -3,3 C -1,6 C 0,0 km/h
26.02.2016 08:00 0,9 C 87 % 1010,6 hPa 0,0 l/m 0,0 km/h SO -1,0 C 0,9 C 0,0 km/h
26.02.2016 09:00 4,6 C 85 % 1010,4 hPa 0,0 l/m 0,0 km/h NW 2,3 C 4,6 C 0,0 km/h
26.02.2016 10:00 7,5 C 74 % 1009,9 hPa 0,0 l/m 0,0 km/h N-NW 3,2 C 7,5 C 0,0 km/h
26.02.2016 11:00 11,4 C 62 % 1009,3 hPa 0,0 l/m 0,0 km/h S-SW 4,4 C 11,4 C 0,0 km/h
26.02.2016 12:00 11,3 C 52 % 1008,7 hPa 0,0 l/m 0,0 km/h NO 1,8 C 11,3 C 0,0 km/h
26.02.2016 13:00 9,5 C 52 % 1007,8 hPa 0,0 l/m 0,0 km/h O-SO 0,1 C 9,5 C 0,0 km/h
26.02.2016 14:00 9,5 C 56 % 1006,9 hPa 0,0 l/m 0,0 km/h SO 1,2 C 9,5 C 0,0 km/h
26.02.2016 15:00 10,8 C 49 % 1006,2 hPa 0,0 l/m 0,0 km/h S-SO 0,5 C 10,8 C 0,0 km/h
26.02.2016 16:00 8,0 C 53 % 1005,7 hPa 0,0 l/m 22,7 km/h SO -1,0 C -0,2 C 12,6 km/h
26.02.2016 17:00 4,4 C 60 % 1005,3 hPa 0,0 l/m 0,0 km/h SO -2,7 C 4,4 C 0,0 km/h
26.02.2016 18:00 3,3 C 63 % 1005,4 hPa 0,0 l/m 0,0 km/h O-SO -3,1 C 3,3 C 0,0 km/h
26.02.2016 19:00 0,5 C 73 % 1005,0 hPa 0,0 l/m 0,0 km/h SO -3,8 C 0,5 C 0,0 km/h
26.02.2016 20:00 -0,4 C 79 % 1004,9 hPa 0,0 l/m 0,0 km/h SO -3,6 C -0,4 C 0,0 km/h
26.02.2016 21:00 -0,5 C 82 % 1004,3 hPa 0,0 l/m 0,0 km/h O -3,2 C -0,5 C 0,0 km/h
26.02.2016 22:00 -1,2 C 83 % 1003,8 hPa 0,0 l/m 0,0 km/h SO -3,7 C -1,2 C 0,0 km/h
26.02.2016 23:00 -1,5 C 85 % 1003,2 hPa 0,0 l/m 0,0 km/h S-SO -3,7 C -1,5 C 0,0 km/h
27.02.2016 00:00 -2,2 C 86 % 1003,0 hPa 0,0 l/m 0,0 km/h S-SO -4,2 C -2,2 C 0,0 km/h
27.02.2016 01:00 -3,2 C 86 % 1003,1 hPa 0,0 l/m 0,0 km/h S-SO -5,2 C -3,2 C 0,0 km/h
27.02.2016 02:00 -3,1 C 86 % 1002,5 hPa 0,0 l/m 0,0 km/h S-SO -5,1 C -3,1 C 0,0 km/h
27.02.2016 03:00 -3,5 C 87 % 1002,1 hPa 0,0 l/m 0,0 km/h O-NO -5,3 C -3,5 C 0,0 km/h
27.02.2016 04:00 -3,5 C 88 % 1001,8 hPa 0,0 l/m 0,0 km/h O-NO -5,2 C -3,5 C 0,0 km/h
27.02.2016 05:00 -3,7 C 88 % 1001,4 hPa 0,0 l/m 0,0 km/h O-NO -5,4 C -3,7 C 0,0 km/h
27.02.2016 06:00 -4,1 C 88 % 1001,7 hPa 0,0 l/m 0,0 km/h O-NO -5,8 C -4,1 C 0,0 km/h
27.02.2016 07:00 -3,7 C 88 % 1002,0 hPa 0,0 l/m 0,0 km/h O-NO -5,4 C -3,7 C 0,0 km/h
27.02.2016 08:00 -0,6 C 88 % 1002,6 hPa 0,0 l/m 0,0 km/h O-NO -2,3 C -0,6 C 0,0 km/h
27.02.2016 09:00 5,5 C 78 % 1002,5 hPa 0,0 l/m 0,0 km/h N-NW 2,0 C 5,5 C 0,0 km/h
27.02.2016 10:00 9,6 C 64 % 1001,8 hPa 0,0 l/m 0,0 km/h N-NO 3,1 C 9,6 C 0,0 km/h
27.02.2016 11:00 9,9 C 58 % 1001,8 hPa 0,0 l/m 0,0 km/h W-NW 2,0 C 9,9 C 0,0 km/h
27.02.2016 12:00 0,0 C 0 % 1001,3 hPa 0,0 l/m 0,0 km/h NW -60,0 C 0,0 C 0,0 km/h
27.02.2016 13:00 11,1 C 57 % 1000,9 hPa 0,0 l/m 16,2 km/h NW 2,9 C 6,0 C 9,0 km/h
27.02.2016 14:00 12,0 C 54 % 1000,8 hPa 0,0 l/m 0,6 km/h N 3,0 C 12,0 C 0,4 km/h
27.02.2016 15:00 13,6 C 50 % 1000,9 hPa 0,0 l/m 0,0 km/h W-NW 3,4 C 13,6 C 0,0 km/h
27.02.2016 16:00 10,5 C 57 % 1000,8 hPa 0,0 l/m 0,0 km/h W-NW 2,3 C 10,5 C 0,0 km/h
27.02.2016 17:00 7,1 C 66 % 1000,9 hPa 0,0 l/m 0,0 km/h W-NW 1,2 C 7,1 C 0,0 km/h
27.02.2016 18:00 2,6 C 75 % 1001,1 hPa 0,0 l/m 0,0 km/h SW -1,4 C 2,6 C 0,0 km/h
27.02.2016 19:00 0,7 C 79 % 1001,5 hPa 0,0 l/m 0,0 km/h SW -2,5 C 0,7 C 0,0 km/h
27.02.2016 20:00 -0,1 C 83 % 1001,6 hPa 0,0 l/m 0,0 km/h S-SW -2,6 C -0,1 C 0,0 km/h
27.02.2016 21:00 -0,4 C 84 % 1001,9 hPa 0,0 l/m 0,0 km/h O-SO -2,8 C -0,4 C 0,0 km/h
27.02.2016 22:00 -0,9 C 86 % 1001,8 hPa 0,0 l/m 0,0 km/h O -2,9 C -0,9 C 0,0 km/h
27.02.2016 23:00 -1,2 C 87 % 1001,5 hPa 0,0 l/m 0,0 km/h O -3,1 C -1,2 C 0,0 km/h
28.02.2016 00:00 -1,1 C 87 % 1001,2 hPa 0,0 l/m 0,0 km/h O-NO -3,0 C -1,1 C 0,0 km/h
28.02.2016 01:00 -1,1 C 88 % 1000,7 hPa 0,0 l/m 0,0 km/h O -2,8 C -1,1 C 0,0 km/h
28.02.2016 02:00 -0,8 C 88 % 1000,7 hPa 0,0 l/m 0,0 km/h O -2,5 C -0,8 C 0,0 km/h
28.02.2016 03:00 -1,0 C 88 % 1000,8 hPa 0,0 l/m 0,0 km/h O-SO -2,7 C -1,0 C 0,0 km/h
28.02.2016 04:00 -1,5 C 88 % 1000,6 hPa 0,0 l/m 0,0 km/h O-SO -3,2 C -1,5 C 0,0 km/h
28.02.2016 05:00 -1,3 C 88 % 1000,3 hPa 0,0 l/m 0,0 km/h SW -3,0 C -1,3 C 0,0 km/h
28.02.2016 06:00 -0,5 C 88 % 1000,7 hPa 0,0 l/m 0,0 km/h S-SW -2,2 C -0,5 C 0,0 km/h
28.02.2016 07:00 -0,5 C 88 % 1001,4 hPa 0,0 l/m 0,0 km/h S-SW -2,2 C -0,5 C 0,0 km/h
28.02.2016 08:00 0,1 C 88 % 1002,6 hPa 0,0 l/m 0,0 km/h W-SW -1,6 C 0,1 C 0,0 km/h
28.02.2016 09:00 2,9 C 86 % 1003,0 hPa 0,0 l/m 0,0 km/h SW 0,8 C 2,9 C 0,0 km/h
28.02.2016 10:00 3,6 C 82 % 1004,1 hPa 0,0 l/m 7,8 km/h W-SW 0,8 C 2,3 C 4,3 km/h
28.02.2016 11:00 4,1 C 79 % 1005,4 hPa 0,0 l/m 10,4 km/h W 0,8 C 0,8 C 5,8 km/h
28.02.2016 12:00 5,2 C 77 % 1006,5 hPa 0,0 l/m 0,0 km/h W-SW 1,5 C 5,2 C 0,0 km/h
28.02.2016 13:00 6,1 C 72 % 1006,4 hPa 0,0 l/m 0,0 km/h W 1,4 C 6,1 C 0,0 km/h
28.02.2016 14:00 6,8 C 70 % 1006,6 hPa 0,0 l/m 0,0 km/h W-NW 1,7 C 6,8 C 0,0 km/h
28.02.2016 15:00 6,4 C 70 % 1006,8 hPa 0,0 l/m 0,0 km/h W-NW 1,3 C 6,4 C 0,0 km/h
28.02.2016 16:00 5,4 C 73 % 1007,0 hPa 0,0 l/m 0,0 km/h S-SO 1,0 C 5,4 C 0,0 km/h
28.02.2016 17:00 3,8 C 79 % 1007,9 hPa 0,0 l/m 0,0 km/h S-SO 0,5 C 3,8 C 0,0 km/h
28.02.2016 18:00 3,8 C 79 % 1008,4 hPa 0,0 l/m 0,0 km/h S-SO 0,5 C 3,8 C 0,0 km/h
28.02.2016 19:00 0,0 C 0 % 1008,7 hPa 0,0 l/m 0,0 km/h S-SO -60,0 C 0,0 C 0,0 km/h
28.02.2016 20:00 0,0 C 0 % 1008,7 hPa 0,0 l/m 0,0 km/h S-SO -60,0 C 0,0 C 0,0 km/h
28.02.2016 21:00 0,0 C 0 % 1008,8 hPa 0,0 l/m 0,0 km/h S-SO -60,0 C 0,0 C 0,0 km/h
28.02.2016 22:00 0,0 C 0 % 1008,2 hPa 0,0 l/m 0,0 km/h S-SO -60,0 C 0,0 C 0,0 km/h
28.02.2016 23:00 0,0 C 0 % 1008,4 hPa 0,0 l/m 0,0 km/h S-SO -60,0 C 0,0 C 0,0 km/h
Min-Datum _ 27.02.16 27.02.16 28.02.16 - 22.02.16 - 27.02.16 24.02.16 22.02.16
_ Min-Zeit 06:42 12:42 05:42 - 00:42 - 12:42 20:42 00:42
Minimum _ -4,1 C 0 % 1000,3 hPa - 0,0 km/h - -60,0 C -5,8 C 0,0 km/h
Max-Datum _ 22.02.16 23.02.16 24.02.16 23.02.16 23.02.16 - 22.02.16 24.02.16 23.02.16
_ Max-Zeit 14:42 14:42 00:42 15:42 11:42 - 11:42 14:42 11:42
Maximum _ 17,1 C 88 % 1018,3 hPa 2,1 l/m 45,4 km/h
NO
- 8,6 C 15,9 C 25,2 km/h
NO
Durchschnitt _ 4,8 C 76 % 1009,1 hPa #19,1 l/m 4,9 km/h SO -0,8 C 3,4 C 2,7 km/h
www.sexauwetter.de